sensor_id;sensor_type;location;lat;lon;timestamp;P1;durP1;ratioP1;P2;durP2;ratioP2
52730;SDS011;38624;53.242;6.974;2023-02-28T00:00:20;6.00;;;2.78;;
52730;SDS011;38624;53.242;6.974;2023-02-28T00:02:47;12.63;;;2.78;;
52730;SDS011;38624;53.242;6.974;2023-02-28T00:05:14;8.02;;;2.72;;
52730;SDS011;38624;53.242;6.974;2023-02-28T00:07:41;6.70;;;2.50;;
52730;SDS011;38624;53.242;6.974;2023-02-28T00:10:10;6.97;;;2.67;;
52730;SDS011;38624;53.242;6.974;2023-02-28T00:12:37;5.18;;;2.40;;
52730;SDS011;38624;53.242;6.974;2023-02-28T00:15:08;4.40;;;2.45;;
52730;SDS011;38624;53.242;6.974;2023-02-28T00:17:35;8.32;;;2.60;;
52730;SDS011;38624;53.242;6.974;2023-02-28T00:20:01;7.70;;;2.50;;
52730;SDS011;38624;53.242;6.974;2023-02-28T00:22:29;8.65;;;2.60;;
52730;SDS011;38624;53.242;6.974;2023-02-28T00:24:55;5.72;;;2.42;;
52730;SDS011;38624;53.242;6.974;2023-02-28T00:27:21;9.30;;;2.95;;
52730;SDS011;38624;53.242;6.974;2023-02-28T00:29:47;10.35;;;2.88;;
52730;SDS011;38624;53.242;6.974;2023-02-28T00:32:12;7.28;;;2.88;;
52730;SDS011;38624;53.242;6.974;2023-02-28T00:34:38;7.97;;;2.63;;
52730;SDS011;38624;53.242;6.974;2023-02-28T00:37:08;10.07;;;3.30;;
52730;SDS011;38624;53.242;6.974;2023-02-28T00:39:37;7.57;;;4.10;;
52730;SDS011;38624;53.242;6.974;2023-02-28T00:42:03;8.13;;;4.32;;
52730;SDS011;38624;53.242;6.974;2023-02-28T00:44:30;9.52;;;4.20;;
52730;SDS011;38624;53.242;6.974;2023-02-28T00:46:56;9.60;;;4.40;;
52730;SDS011;38624;53.242;6.974;2023-02-28T00:49:22;8.57;;;3.67;;
52730;SDS011;38624;53.242;6.974;2023-02-28T00:51:49;7.32;;;3.60;;
52730;SDS011;38624;53.242;6.974;2023-02-28T00:54:15;13.80;;;4.50;;
52730;SDS011;38624;53.242;6.974;2023-02-28T00:56:41;9.50;;;4.10;;
52730;SDS011;38624;53.242;6.974;2023-02-28T00:59:07;7.65;;;3.85;;
52730;SDS011;38624;53.242;6.974;2023-02-28T01:01:33;13.30;;;4.30;;
52730;SDS011;38624;53.242;6.974;2023-02-28T01:03:59;7.97;;;3.40;;
52730;SDS011;38624;53.242;6.974;2023-02-28T01:06:25;9.90;;;3.50;;
52730;SDS011;38624;53.242;6.974;2023-02-28T01:08:50;7.85;;;3.25;;
52730;SDS011;38624;53.242;6.974;2023-02-28T01:11:16;8.60;;;3.40;;
52730;SDS011;38624;53.242;6.974;2023-02-28T01:13:43;6.47;;;3.47;;
52730;SDS011;38624;53.242;6.974;2023-02-28T01:16:11;8.13;;;3.67;;
52730;SDS011;38624;53.242;6.974;2023-02-28T01:18:37;8.83;;;3.83;;
52730;SDS011;38624;53.242;6.974;2023-02-28T01:21:06;14.35;;;4.10;;
52730;SDS011;38624;53.242;6.974;2023-02-28T01:23:33;9.98;;;3.70;;
52730;SDS011;38624;53.242;6.974;2023-02-28T01:26:06;8.80;;;3.65;;
52730;SDS011;38624;53.242;6.974;2023-02-28T01:28:33;9.40;;;4.03;;
52730;SDS011;38624;53.242;6.974;2023-02-28T01:30:59;8.43;;;3.77;;
52730;SDS011;38624;53.242;6.974;2023-02-28T01:33:26;12.00;;;3.60;;
52730;SDS011;38624;53.242;6.974;2023-02-28T01:35:58;7.65;;;3.80;;
52730;SDS011;38624;53.242;6.974;2023-02-28T01:38:28;6.80;;;3.38;;
52730;SDS011;38624;53.242;6.974;2023-02-28T01:40:54;10.00;;;3.50;;
52730;SDS011;38624;53.242;6.974;2023-02-28T01:43:30;6.68;;;3.30;;
52730;SDS011;38624;53.242;6.974;2023-02-28T01:45:57;10.40;;;3.95;;
52730;SDS011;38624;53.242;6.974;2023-02-28T01:48:25;8.63;;;3.80;;
52730;SDS011;38624;53.242;6.974;2023-02-28T01:50:54;9.32;;;3.55;;
52730;SDS011;38624;53.242;6.974;2023-02-28T01:53:31;9.00;;;3.65;;
52730;SDS011;38624;53.242;6.974;2023-02-28T01:56:00;5.47;;;3.60;;
52730;SDS011;38624;53.242;6.974;2023-02-28T01:58:29;7.82;;;4.35;;
52730;SDS011;38624;53.242;6.974;2023-02-28T02:00:56;8.25;;;3.92;;
52730;SDS011;38624;53.242;6.974;2023-02-28T02:03:22;8.60;;;3.93;;
52730;SDS011;38624;53.242;6.974;2023-02-28T02:05:49;9.38;;;4.05;;
52730;SDS011;38624;53.242;6.974;2023-02-28T02:08:16;6.45;;;3.83;;
52730;SDS011;38624;53.242;6.974;2023-02-28T02:10:45;11.73;;;4.47;;
52730;SDS011;38624;53.242;6.974;2023-02-28T02:13:29;7.38;;;3.95;;
52730;SDS011;38624;53.242;6.974;2023-02-28T02:16:35;12.00;;;4.60;;
52730;SDS011;38624;53.242;6.974;2023-02-28T02:19:41;11.20;;;4.65;;
52730;SDS011;38624;53.242;6.974;2023-02-28T02:25:23;9.38;;;5.35;;
52730;SDS011;38624;53.242;6.974;2023-02-28T02:41:57;11.75;;;5.72;;
52730;SDS011;38624;53.242;6.974;2023-02-28T02:44:49;11.20;;;5.80;;
52730;SDS011;38624;53.242;6.974;2023-02-28T02:47:21;10.88;;;6.15;;
52730;SDS011;38624;53.242;6.974;2023-02-28T02:49:55;9.45;;;5.70;;
52730;SDS011;38624;53.242;6.974;2023-02-28T02:52:23;12.82;;;5.63;;
52730;SDS011;38624;53.242;6.974;2023-02-28T02:54:55;11.55;;;6.28;;
52730;SDS011;38624;53.242;6.974;2023-02-28T02:59:50;10.35;;;5.55;;
52730;SDS011;38624;53.242;6.974;2023-02-28T03:02:20;9.82;;;5.47;;
52730;SDS011;38624;53.242;6.974;2023-02-28T03:04:51;9.82;;;6.25;;
52730;SDS011;38624;53.242;6.974;2023-02-28T03:07:20;10.73;;;6.10;;
52730;SDS011;38624;53.242;6.974;2023-02-28T03:09:50;9.70;;;6.20;;
52730;SDS011;38624;53.242;6.974;2023-02-28T03:12:20;10.25;;;5.88;;
52730;SDS011;38624;53.242;6.974;2023-02-28T03:14:55;10.73;;;5.70;;
52730;SDS011;38624;53.242;6.974;2023-02-28T03:20:27;9.63;;;6.13;;
52730;SDS011;38624;53.242;6.974;2023-02-28T03:23:21;11.55;;;6.18;;
52730;SDS011;38624;53.242;6.974;2023-02-28T03:26:00;9.95;;;6.07;;
52730;SDS011;38624;53.242;6.974;2023-02-28T03:31:38;8.95;;;6.28;;
52730;SDS011;38624;53.242;6.974;2023-02-28T03:34:10;10.25;;;6.10;;
52730;SDS011;38624;53.242;6.974;2023-02-28T03:37:05;11.27;;;6.68;;
52730;SDS011;38624;53.242;6.974;2023-02-28T03:42:11;10.82;;;6.10;;
52730;SDS011;38624;53.242;6.974;2023-02-28T03:44:46;11.30;;;6.68;;
52730;SDS011;38624;53.242;6.974;2023-02-28T03:47:27;10.15;;;6.20;;
52730;SDS011;38624;53.242;6.974;2023-02-28T03:49:54;10.68;;;6.40;;
52730;SDS011;38624;53.242;6.974;2023-02-28T03:52:22;11.98;;;7.18;;
52730;SDS011;38624;53.242;6.974;2023-02-28T03:54:51;10.57;;;6.78;;
52730;SDS011;38624;53.242;6.974;2023-02-28T03:57:26;11.38;;;6.40;;
52730;SDS011;38624;53.242;6.974;2023-02-28T04:00:03;12.15;;;6.43;;
52730;SDS011;38624;53.242;6.974;2023-02-28T04:02:50;11.60;;;6.43;;
52730;SDS011;38624;53.242;6.974;2023-02-28T04:07:44;10.30;;;6.18;;
52730;SDS011;38624;53.242;6.974;2023-02-28T04:10:10;9.07;;;5.65;;
52730;SDS011;38624;53.242;6.974;2023-02-28T04:12:36;10.55;;;6.05;;
52730;SDS011;38624;53.242;6.974;2023-02-28T04:15:02;10.63;;;6.45;;
52730;SDS011;38624;53.242;6.974;2023-02-28T04:17:28;10.23;;;6.22;;
52730;SDS011;38624;53.242;6.974;2023-02-28T04:19:54;9.13;;;6.03;;
52730;SDS011;38624;53.242;6.974;2023-02-28T04:22:22;10.02;;;6.18;;
52730;SDS011;38624;53.242;6.974;2023-02-28T04:24:51;10.23;;;6.00;;
52730;SDS011;38624;53.242;6.974;2023-02-28T04:27:18;9.80;;;6.22;;
52730;SDS011;38624;53.242;6.974;2023-02-28T04:29:45;10.68;;;5.82;;
52730;SDS011;38624;53.242;6.974;2023-02-28T04:32:10;10.43;;;6.35;;
52730;SDS011;38624;53.242;6.974;2023-02-28T04:34:37;9.32;;;6.03;;
52730;SDS011;38624;53.242;6.974;2023-02-28T04:37:02;11.80;;;6.65;;
52730;SDS011;38624;53.242;6.974;2023-02-28T04:39:28;9.57;;;5.93;;
52730;SDS011;38624;53.242;6.974;2023-02-28T04:41:55;9.93;;;6.05;;
52730;SDS011;38624;53.242;6.974;2023-02-28T04:44:21;10.10;;;6.00;;
52730;SDS011;38624;53.242;6.974;2023-02-28T04:46:48;11.23;;;6.13;;
52730;SDS011;38624;53.242;6.974;2023-02-28T04:49:14;10.50;;;6.28;;
52730;SDS011;38624;53.242;6.974;2023-02-28T04:51:40;11.55;;;6.90;;
52730;SDS011;38624;53.242;6.974;2023-02-28T04:54:06;10.57;;;6.38;;
52730;SDS011;38624;53.242;6.974;2023-02-28T04:56:33;11.43;;;6.68;;
52730;SDS011;38624;53.242;6.974;2023-02-28T04:58:59;9.25;;;6.38;;
52730;SDS011;38624;53.242;6.974;2023-02-28T05:01:28;10.85;;;6.53;;
52730;SDS011;38624;53.242;6.974;2023-02-28T05:03:56;11.15;;;6.20;;
52730;SDS011;38624;53.242;6.974;2023-02-28T05:06:25;10.98;;;6.80;;
52730;SDS011;38624;53.242;6.974;2023-02-28T05:08:52;7.97;;;5.60;;
52730;SDS011;38624;53.242;6.974;2023-02-28T05:11:22;10.03;;;6.13;;
52730;SDS011;38624;53.242;6.974;2023-02-28T05:13:51;10.65;;;6.50;;
52730;SDS011;38624;53.242;6.974;2023-02-28T05:16:17;9.75;;;5.47;;
52730;SDS011;38624;53.242;6.974;2023-02-28T05:18:43;12.07;;;6.17;;
52730;SDS011;38624;53.242;6.974;2023-02-28T05:23:57;9.25;;;6.13;;
52730;SDS011;38624;53.242;6.974;2023-02-28T05:26:24;12.93;;;6.97;;
52730;SDS011;38624;53.242;6.974;2023-02-28T05:28:51;10.90;;;6.45;;
52730;SDS011;38624;53.242;6.974;2023-02-28T05:31:17;13.57;;;6.03;;
52730;SDS011;38624;53.242;6.974;2023-02-28T05:33:43;12.55;;;6.95;;
52730;SDS011;38624;53.242;6.974;2023-02-28T05:36:08;13.60;;;6.53;;
52730;SDS011;38624;53.242;6.974;2023-02-28T05:38:34;12.00;;;7.32;;
52730;SDS011;38624;53.242;6.974;2023-02-28T05:41:04;14.55;;;7.55;;
52730;SDS011;38624;53.242;6.974;2023-02-28T05:43:30;11.70;;;7.70;;
52730;SDS011;38624;53.242;6.974;2023-02-28T05:45:56;14.27;;;7.65;;
52730;SDS011;38624;53.242;6.974;2023-02-28T05:48:22;13.60;;;7.93;;
52730;SDS011;38624;53.242;6.974;2023-02-28T05:50:47;13.07;;;8.00;;
52730;SDS011;38624;53.242;6.974;2023-02-28T05:53:13;12.48;;;7.68;;
52730;SDS011;38624;53.242;6.974;2023-02-28T05:55:38;14.07;;;8.10;;
52730;SDS011;38624;53.242;6.974;2023-02-28T06:00:31;15.77;;;8.70;;
52730;SDS011;38624;53.242;6.974;2023-02-28T06:02:57;22.00;;;10.15;;
52730;SDS011;38624;53.242;6.974;2023-02-28T06:05:26;16.30;;;9.20;;
52730;SDS011;38624;53.242;6.974;2023-02-28T06:07:52;21.88;;;10.60;;
52730;SDS011;38624;53.242;6.974;2023-02-28T06:10:18;19.10;;;10.10;;
52730;SDS011;38624;53.242;6.974;2023-02-28T06:12:44;20.75;;;10.20;;
52730;SDS011;38624;53.242;6.974;2023-02-28T06:15:13;18.05;;;10.32;;
52730;SDS011;38624;53.242;6.974;2023-02-28T06:17:40;20.77;;;10.75;;
52730;SDS011;38624;53.242;6.974;2023-02-28T06:20:07;21.23;;;11.25;;
52730;SDS011;38624;53.242;6.974;2023-02-28T06:22:34;25.17;;;12.43;;
52730;SDS011;38624;53.242;6.974;2023-02-28T06:27:26;24.33;;;12.32;;
52730;SDS011;38624;53.242;6.974;2023-02-28T06:29:55;28.02;;;12.32;;
52730;SDS011;38624;53.242;6.974;2023-02-28T06:32:21;26.17;;;13.50;;
52730;SDS011;38624;53.242;6.974;2023-02-28T06:34:47;22.33;;;12.68;;
52730;SDS011;38624;53.242;6.974;2023-02-28T06:37:12;21.77;;;11.80;;
52730;SDS011;38624;53.242;6.974;2023-02-28T06:39:38;23.58;;;12.10;;
52730;SDS011;38624;53.242;6.974;2023-02-28T06:42:04;20.13;;;12.13;;
52730;SDS011;38624;53.242;6.974;2023-02-28T06:44:30;21.77;;;12.10;;
52730;SDS011;38624;53.242;6.974;2023-02-28T06:47:01;21.73;;;12.20;;
52730;SDS011;38624;53.242;6.974;2023-02-28T06:49:28;25.83;;;11.85;;
52730;SDS011;38624;53.242;6.974;2023-02-28T06:51:55;25.63;;;11.88;;
52730;SDS011;38624;53.242;6.974;2023-02-28T06:54:21;23.65;;;12.50;;
52730;SDS011;38624;53.242;6.974;2023-02-28T06:56:46;20.48;;;11.93;;
52730;SDS011;38624;53.242;6.974;2023-02-28T06:59:12;25.33;;;12.20;;
52730;SDS011;38624;53.242;6.974;2023-02-28T07:01:38;21.00;;;11.15;;
52730;SDS011;38624;53.242;6.974;2023-02-28T07:04:05;18.20;;;11.13;;
52730;SDS011;38624;53.242;6.974;2023-02-28T07:06:32;20.25;;;11.55;;
52730;SDS011;38624;53.242;6.974;2023-02-28T07:08:57;20.10;;;10.73;;
52730;SDS011;38624;53.242;6.974;2023-02-28T07:11:24;19.52;;;9.63;;
52730;SDS011;38624;53.242;6.974;2023-02-28T07:13:52;16.55;;;9.75;;
52730;SDS011;38624;53.242;6.974;2023-02-28T07:16:21;17.58;;;10.13;;
52730;SDS011;38624;53.242;6.974;2023-02-28T07:21:14;14.73;;;9.93;;
52730;SDS011;38624;53.242;6.974;2023-02-28T07:23:40;17.87;;;9.10;;
52730;SDS011;38624;53.242;6.974;2023-02-28T07:26:07;16.67;;;9.30;;
52730;SDS011;38624;53.242;6.974;2023-02-28T07:28:38;15.00;;;9.27;;
52730;SDS011;38624;53.242;6.974;2023-02-28T07:31:06;14.73;;;9.17;;
52730;SDS011;38624;53.242;6.974;2023-02-28T07:33:32;14.53;;;9.30;;
52730;SDS011;38624;53.242;6.974;2023-02-28T07:36:06;17.98;;;9.73;;
52730;SDS011;38624;53.242;6.974;2023-02-28T07:38:40;16.02;;;9.13;;
52730;SDS011;38624;53.242;6.974;2023-02-28T07:41:10;18.08;;;9.63;;
52730;SDS011;38624;53.242;6.974;2023-02-28T07:43:36;15.80;;;9.47;;
52730;SDS011;38624;53.242;6.974;2023-02-28T07:46:06;15.57;;;9.15;;
52730;SDS011;38624;53.242;6.974;2023-02-28T07:48:34;17.45;;;9.60;;
52730;SDS011;38624;53.242;6.974;2023-02-28T07:50:59;16.05;;;9.80;;
52730;SDS011;38624;53.242;6.974;2023-02-28T07:53:26;14.53;;;9.37;;
52730;SDS011;38624;53.242;6.974;2023-02-28T07:55:59;16.75;;;9.55;;
52730;SDS011;38624;53.242;6.974;2023-02-28T07:58:26;18.17;;;9.53;;
52730;SDS011;38624;53.242;6.974;2023-02-28T08:00:54;15.77;;;9.32;;
52730;SDS011;38624;53.242;6.974;2023-02-28T08:03:20;15.00;;;9.20;;
52730;SDS011;38624;53.242;6.974;2023-02-28T08:05:47;19.95;;;9.25;;
52730;SDS011;38624;53.242;6.974;2023-02-28T08:08:13;19.40;;;9.38;;
52730;SDS011;38624;53.242;6.974;2023-02-28T08:10:40;19.00;;;10.15;;
52730;SDS011;38624;53.242;6.974;2023-02-28T08:13:06;18.07;;;9.10;;
52730;SDS011;38624;53.242;6.974;2023-02-28T08:15:32;14.02;;;9.35;;
52730;SDS011;38624;53.242;6.974;2023-02-28T08:17:58;18.73;;;9.27;;
52730;SDS011;38624;53.242;6.974;2023-02-28T08:20:24;16.60;;;10.55;;
52730;SDS011;38624;53.242;6.974;2023-02-28T08:22:50;16.17;;;10.68;;
52730;SDS011;38624;53.242;6.974;2023-02-28T08:25:15;17.98;;;9.73;;
52730;SDS011;38624;53.242;6.974;2023-02-28T08:27:41;21.38;;;9.85;;
52730;SDS011;38624;53.242;6.974;2023-02-28T08:30:07;15.13;;;9.57;;
52730;SDS011;38624;53.242;6.974;2023-02-28T08:32:35;16.67;;;10.40;;
52730;SDS011;38624;53.242;6.974;2023-02-28T08:35:01;15.63;;;10.02;;
52730;SDS011;38624;53.242;6.974;2023-02-28T08:37:28;18.70;;;10.30;;
52730;SDS011;38624;53.242;6.974;2023-02-28T08:39:53;18.10;;;9.95;;
52730;SDS011;38624;53.242;6.974;2023-02-28T08:42:19;19.45;;;10.15;;
52730;SDS011;38624;53.242;6.974;2023-02-28T08:44:45;18.40;;;10.05;;
52730;SDS011;38624;53.242;6.974;2023-02-28T08:47:11;19.05;;;10.52;;
52730;SDS011;38624;53.242;6.974;2023-02-28T08:49:36;17.00;;;10.40;;
52730;SDS011;38624;53.242;6.974;2023-02-28T08:52:02;20.05;;;11.00;;
52730;SDS011;38624;53.242;6.974;2023-02-28T08:54:28;16.93;;;10.50;;
52730;SDS011;38624;53.242;6.974;2023-02-28T08:56:56;17.10;;;10.48;;
52730;SDS011;38624;53.242;6.974;2023-02-28T08:59:22;20.10;;;10.40;;
52730;SDS011;38624;53.242;6.974;2023-02-28T09:01:48;17.98;;;10.90;;
52730;SDS011;38624;53.242;6.974;2023-02-28T09:04:13;23.67;;;11.88;;
52730;SDS011;38624;53.242;6.974;2023-02-28T09:06:39;17.85;;;11.10;;
52730;SDS011;38624;53.242;6.974;2023-02-28T09:09:05;18.02;;;11.27;;
52730;SDS011;38624;53.242;6.974;2023-02-28T09:11:32;17.40;;;11.07;;
52730;SDS011;38624;53.242;6.974;2023-02-28T09:13:59;20.00;;;10.90;;
52730;SDS011;38624;53.242;6.974;2023-02-28T09:16:26;25.27;;;11.57;;
52730;SDS011;38624;53.242;6.974;2023-02-28T09:18:51;16.90;;;10.73;;
52730;SDS011;38624;53.242;6.974;2023-02-28T09:21:18;17.98;;;10.57;;
52730;SDS011;38624;53.242;6.974;2023-02-28T09:26:14;18.95;;;10.40;;
52730;SDS011;38624;53.242;6.974;2023-02-28T09:28:45;17.05;;;10.23;;
52730;SDS011;38624;53.242;6.974;2023-02-28T09:31:14;16.42;;;9.98;;
52730;SDS011;38624;53.242;6.974;2023-02-28T09:33:46;18.80;;;10.13;;
52730;SDS011;38624;53.242;6.974;2023-02-28T09:36:15;17.65;;;10.95;;
52730;SDS011;38624;53.242;6.974;2023-02-28T09:38:41;17.83;;;10.50;;
52730;SDS011;38624;53.242;6.974;2023-02-28T09:41:10;17.73;;;10.05;;
52730;SDS011;38624;53.242;6.974;2023-02-28T09:43:44;17.70;;;10.80;;
52730;SDS011;38624;53.242;6.974;2023-02-28T09:46:17;18.50;;;10.15;;
52730;SDS011;38624;53.242;6.974;2023-02-28T09:48:56;15.57;;;10.48;;
52730;SDS011;38624;53.242;6.974;2023-02-28T09:51:28;15.80;;;10.05;;
52730;SDS011;38624;53.242;6.974;2023-02-28T09:54:01;21.70;;;11.05;;
52730;SDS011;38624;53.242;6.974;2023-02-28T09:56:29;20.83;;;11.73;;
52730;SDS011;38624;53.242;6.974;2023-02-28T09:59:02;17.45;;;10.23;;
52730;SDS011;38624;53.242;6.974;2023-02-28T10:10:31;19.65;;;11.02;;
52730;SDS011;38624;53.242;6.974;2023-02-28T10:13:32;15.43;;;10.55;;
52730;SDS011;38624;53.242;6.974;2023-02-28T10:16:20;21.52;;;10.52;;
52730;SDS011;38624;53.242;6.974;2023-02-28T10:19:15;16.90;;;10.50;;
52730;SDS011;38624;53.242;6.974;2023-02-28T10:21:57;22.90;;;11.43;;
52730;SDS011;38624;53.242;6.974;2023-02-28T10:24:34;17.17;;;11.15;;
52730;SDS011;38624;53.242;6.974;2023-02-28T10:29:48;17.50;;;10.40;;
52730;SDS011;38624;53.242;6.974;2023-02-28T10:32:16;17.20;;;11.00;;
52730;SDS011;38624;53.242;6.974;2023-02-28T10:34:43;18.20;;;10.63;;
52730;SDS011;38624;53.242;6.974;2023-02-28T10:37:10;19.23;;;9.85;;
52730;SDS011;38624;53.242;6.974;2023-02-28T10:39:44;12.18;;;7.88;;
52730;SDS011;38624;53.242;6.974;2023-02-28T10:45:16;15.70;;;9.80;;
52730;SDS011;38624;53.242;6.974;2023-02-28T10:48:05;14.52;;;9.23;;
52730;SDS011;38624;53.242;6.974;2023-02-28T10:50:52;14.35;;;8.93;;
52730;SDS011;38624;53.242;6.974;2023-02-28T11:07:19;12.20;;;8.10;;
52730;SDS011;38624;53.242;6.974;2023-02-28T11:09:48;13.68;;;8.30;;
52730;SDS011;38624;53.242;6.974;2023-02-28T11:12:31;13.57;;;8.10;;
52730;SDS011;38624;53.242;6.974;2023-02-28T11:15:04;12.90;;;8.73;;
52730;SDS011;38624;53.242;6.974;2023-02-28T11:17:43;11.88;;;7.82;;
52730;SDS011;38624;53.242;6.974;2023-02-28T11:20:23;11.75;;;7.57;;
52730;SDS011;38624;53.242;6.974;2023-02-28T11:22:51;13.10;;;8.80;;
52730;SDS011;38624;53.242;6.974;2023-02-28T11:25:38;12.57;;;8.60;;
52730;SDS011;38624;53.242;6.974;2023-02-28T11:28:05;14.65;;;8.60;;
52730;SDS011;38624;53.242;6.974;2023-02-28T11:30:49;13.52;;;8.73;;
52730;SDS011;38624;53.242;6.974;2023-02-28T11:33:41;13.57;;;8.90;;
52730;SDS011;38624;53.242;6.974;2023-02-28T11:36:43;21.55;;;8.98;;
52730;SDS011;38624;53.242;6.974;2023-02-28T11:39:09;14.88;;;8.20;;
52730;SDS011;38624;53.242;6.974;2023-02-28T11:41:55;13.32;;;8.20;;
52730;SDS011;38624;53.242;6.974;2023-02-28T11:47:47;12.07;;;8.05;;
52730;SDS011;38624;53.242;6.974;2023-02-28T11:55:53;11.52;;;8.10;;
52730;SDS011;38624;53.242;6.974;2023-02-28T11:58:29;13.85;;;8.48;;
52730;SDS011;38624;53.242;6.974;2023-02-28T12:01:13;12.13;;;8.00;;
52730;SDS011;38624;53.242;6.974;2023-02-28T12:06:38;12.02;;;7.90;;
52730;SDS011;38624;53.242;6.974;2023-02-28T12:12:06;11.00;;;7.95;;
52730;SDS011;38624;53.242;6.974;2023-02-28T12:26:07;10.38;;;6.93;;
52730;SDS011;38624;53.242;6.974;2023-02-28T12:28:58;10.15;;;6.68;;
52730;SDS011;38624;53.242;6.974;2023-02-28T12:31:36;10.07;;;6.35;;
52730;SDS011;38624;53.242;6.974;2023-02-28T12:34:11;10.27;;;6.10;;
52730;SDS011;38624;53.242;6.974;2023-02-28T12:36:41;9.23;;;6.13;;
52730;SDS011;38624;53.242;6.974;2023-02-28T12:39:12;9.15;;;5.47;;
52730;SDS011;38624;53.242;6.974;2023-02-28T12:41:54;10.75;;;5.60;;
52730;SDS011;38624;53.242;6.974;2023-02-28T12:47:04;10.75;;;5.72;;
52730;SDS011;38624;53.242;6.974;2023-02-28T12:49:38;8.60;;;5.22;;
52730;SDS011;38624;53.242;6.974;2023-02-28T12:52:07;7.47;;;5.30;;
52730;SDS011;38624;53.242;6.974;2023-02-28T13:00:19;7.78;;;5.70;;
52730;SDS011;38624;53.242;6.974;2023-02-28T13:10:47;7.38;;;5.32;;
52730;SDS011;38624;53.242;6.974;2023-02-28T13:13:24;8.05;;;5.45;;
52730;SDS011;38624;53.242;6.974;2023-02-28T13:16:09;6.57;;;5.22;;
52730;SDS011;38624;53.242;6.974;2023-02-28T13:18:37;8.40;;;5.63;;
52730;SDS011;38624;53.242;6.974;2023-02-28T13:21:05;8.02;;;5.38;;
52730;SDS011;38624;53.242;6.974;2023-02-28T13:23:40;7.82;;;4.63;;
52730;SDS011;38624;53.242;6.974;2023-02-28T13:26:12;6.50;;;5.35;;
52730;SDS011;38624;53.242;6.974;2023-02-28T13:31:16;7.80;;;5.55;;
52730;SDS011;38624;53.242;6.974;2023-02-28T13:38:43;6.18;;;4.78;;
52730;SDS011;38624;53.242;6.974;2023-02-28T13:43:59;7.88;;;4.82;;
52730;SDS011;38624;53.242;6.974;2023-02-28T13:46:28;5.88;;;4.75;;
52730;SDS011;38624;53.242;6.974;2023-02-28T13:48:54;6.53;;;4.88;;
52730;SDS011;38624;53.242;6.974;2023-02-28T13:56:56;9.43;;;4.82;;
52730;SDS011;38624;53.242;6.974;2023-02-28T14:05:19;6.72;;;4.63;;
52730;SDS011;38624;53.242;6.974;2023-02-28T14:07:52;8.52;;;4.85;;
52730;SDS011;38624;53.242;6.974;2023-02-28T14:13:02;7.20;;;4.93;;
52730;SDS011;38624;53.242;6.974;2023-02-28T14:15:49;7.78;;;4.80;;
52730;SDS011;38624;53.242;6.974;2023-02-28T14:18:31;7.18;;;5.35;;
52730;SDS011;38624;53.242;6.974;2023-02-28T14:21:09;7.85;;;5.18;;
52730;SDS011;38624;53.242;6.974;2023-02-28T14:32:23;8.02;;;4.95;;
52730;SDS011;38624;53.242;6.974;2023-02-28T14:38:25;7.95;;;4.93;;
52730;SDS011;38624;53.242;6.974;2023-02-28T14:40:58;7.35;;;5.30;;
52730;SDS011;38624;53.242;6.974;2023-02-28T14:43:28;7.80;;;5.18;;
52730;SDS011;38624;53.242;6.974;2023-02-28T14:45:55;9.32;;;4.95;;
52730;SDS011;38624;53.242;6.974;2023-02-28T14:48:26;7.68;;;4.97;;
52730;SDS011;38624;53.242;6.974;2023-02-28T14:50:53;7.57;;;5.10;;
52730;SDS011;38624;53.242;6.974;2023-02-28T14:53:22;7.68;;;4.82;;
52730;SDS011;38624;53.242;6.974;2023-02-28T14:55:50;7.30;;;4.90;;
52730;SDS011;38624;53.242;6.974;2023-02-28T15:01:00;6.68;;;4.95;;
52730;SDS011;38624;53.242;6.974;2023-02-28T15:06:01;7.60;;;5.07;;
52730;SDS011;38624;53.242;6.974;2023-02-28T15:08:30;7.35;;;5.03;;
52730;SDS011;38624;53.242;6.974;2023-02-28T15:11:12;6.68;;;4.63;;
52730;SDS011;38624;53.242;6.974;2023-02-28T15:13:54;7.72;;;5.00;;
52730;SDS011;38624;53.242;6.974;2023-02-28T15:16:24;6.82;;;4.80;;
52730;SDS011;38624;53.242;6.974;2023-02-28T15:19:06;10.00;;;5.57;;
52730;SDS011;38624;53.242;6.974;2023-02-28T15:21:42;8.68;;;6.30;;
52730;SDS011;38624;53.242;6.974;2023-02-28T15:24:14;9.68;;;6.30;;
52730;SDS011;38624;53.242;6.974;2023-02-28T15:26:50;10.18;;;6.20;;
52730;SDS011;38624;53.242;6.974;2023-02-28T15:29:20;7.78;;;5.53;;
52730;SDS011;38624;53.242;6.974;2023-02-28T15:31:49;9.50;;;6.20;;
52730;SDS011;38624;53.242;6.974;2023-02-28T15:34:36;7.93;;;5.60;;
52730;SDS011;38624;53.242;6.974;2023-02-28T15:40:03;12.23;;;8.00;;
52730;SDS011;38624;53.242;6.974;2023-02-28T15:42:37;11.43;;;8.35;;
52730;SDS011;38624;53.242;6.974;2023-02-28T15:45:02;11.03;;;8.93;;
52730;SDS011;38624;53.242;6.974;2023-02-28T15:47:29;12.82;;;9.50;;
52730;SDS011;38624;53.242;6.974;2023-02-28T15:49:59;13.57;;;8.90;;
52730;SDS011;38624;53.242;6.974;2023-02-28T15:55:09;10.88;;;7.88;;
52730;SDS011;38624;53.242;6.974;2023-02-28T15:57:42;8.38;;;7.40;;
52730;SDS011;38624;53.242;6.974;2023-02-28T16:00:13;10.18;;;7.70;;
52730;SDS011;38624;53.242;6.974;2023-02-28T16:02:41;9.65;;;7.47;;
52730;SDS011;38624;53.242;6.974;2023-02-28T16:07:33;10.33;;;7.17;;
52730;SDS011;38624;53.242;6.974;2023-02-28T16:10:00;11.98;;;7.88;;
52730;SDS011;38624;53.242;6.974;2023-02-28T16:12:27;10.52;;;7.30;;
52730;SDS011;38624;53.242;6.974;2023-02-28T16:14:58;12.90;;;6.95;;
52730;SDS011;38624;53.242;6.974;2023-02-28T16:17:29;10.70;;;7.03;;
52730;SDS011;38624;53.242;6.974;2023-02-28T16:19:58;9.68;;;7.03;;
52730;SDS011;38624;53.242;6.974;2023-02-28T16:22:24;9.67;;;7.30;;
52730;SDS011;38624;53.242;6.974;2023-02-28T16:24:49;10.27;;;6.63;;
52730;SDS011;38624;53.242;6.974;2023-02-28T16:27:17;11.38;;;7.15;;
52730;SDS011;38624;53.242;6.974;2023-02-28T16:29:46;13.13;;;8.85;;
52730;SDS011;38624;53.242;6.974;2023-02-28T16:32:14;13.80;;;7.95;;
52730;SDS011;38624;53.242;6.974;2023-02-28T16:34:41;11.63;;;7.72;;
52730;SDS011;38624;53.242;6.974;2023-02-28T16:37:11;13.38;;;8.88;;
52730;SDS011;38624;53.242;6.974;2023-02-28T16:39:38;11.23;;;8.45;;
52730;SDS011;38624;53.242;6.974;2023-02-28T16:42:04;13.35;;;8.25;;
52730;SDS011;38624;53.242;6.974;2023-02-28T16:44:32;11.67;;;8.40;;
52730;SDS011;38624;53.242;6.974;2023-02-28T16:47:00;11.63;;;8.13;;
52730;SDS011;38624;53.242;6.974;2023-02-28T16:49:26;11.30;;;8.05;;
52730;SDS011;38624;53.242;6.974;2023-02-28T16:51:52;12.77;;;8.30;;
52730;SDS011;38624;53.242;6.974;2023-02-28T16:54:18;13.68;;;9.07;;
52730;SDS011;38624;53.242;6.974;2023-02-28T16:56:45;13.17;;;8.63;;
52730;SDS011;38624;53.242;6.974;2023-02-28T16:59:12;13.43;;;8.00;;
52730;SDS011;38624;53.242;6.974;2023-02-28T17:01:38;12.23;;;8.90;;
52730;SDS011;38624;53.242;6.974;2023-02-28T17:04:04;12.23;;;9.10;;
52730;SDS011;38624;53.242;6.974;2023-02-28T17:06:30;12.17;;;8.93;;
52730;SDS011;38624;53.242;6.974;2023-02-28T17:08:56;12.15;;;8.77;;
52730;SDS011;38624;53.242;6.974;2023-02-28T17:11:23;13.75;;;9.07;;
52730;SDS011;38624;53.242;6.974;2023-02-28T17:13:49;15.88;;;10.23;;
52730;SDS011;38624;53.242;6.974;2023-02-28T17:18:40;16.33;;;9.67;;
52730;SDS011;38624;53.242;6.974;2023-02-28T17:21:11;17.92;;;9.75;;
52730;SDS011;38624;53.242;6.974;2023-02-28T17:23:39;14.43;;;9.45;;
52730;SDS011;38624;53.242;6.974;2023-02-28T17:26:04;13.18;;;9.68;;
52730;SDS011;38624;53.242;6.974;2023-02-28T17:28:31;15.10;;;9.57;;
52730;SDS011;38624;53.242;6.974;2023-02-28T17:30:57;15.37;;;9.50;;
52730;SDS011;38624;53.242;6.974;2023-02-28T17:33:23;13.40;;;9.23;;
52730;SDS011;38624;53.242;6.974;2023-02-28T17:35:49;15.00;;;9.75;;
52730;SDS011;38624;53.242;6.974;2023-02-28T17:38:18;14.73;;;10.18;;